Dati Storici

Data ora Umidita' aria (%) Temperatura aria (°C) Rad globale (W/m²) Gonioanemometro (°) Tacoanemometro (m/s) Pioggia (mm)
30-06-2020 21:30 81.8 % 25.675 -57.252 -0.01 0 0
30-06-2020 21:20 81.9 % 25.702 -53.435 -0.009 0 0
30-06-2020 21:10 81.2 % 25.823 -64.086 0.278 0 0
30-06-2020 21:00 81 % 25.864 -61.992 -0.01 0 0
30-06-2020 20:50 80.5 % 25.966 -63.207 -0.011 0 0
30-06-2020 20:40 80.9 % 25.824 -52.078 0.68 0 0
30-06-2020 20:30 80.4 % 25.864 -56.561 -0.011 0 0
30-06-2020 20:20 79.5 % 25.838 -65.191 0.635 0 0
30-06-2020 20:10 78 % 26 -50.259 0.058 0 0
30-06-2020 20:00 76.9 % 26.137 -51.129 -0.014 0 0
30-06-2020 19:50 75.4 % 26.111 -52.582 0.339 0 0
30-06-2020 19:40 73.7 % 26.271 -52.392 2.06 0 0
30-06-2020 19:30 72.2 % 26.436 -71.663 1.453 0 0
30-06-2020 19:20 71.2 % 26.73 -42.788 0.664 0 0
30-06-2020 19:10 70.4 % 26.796 -54.738 1.421 0 0
30-06-2020 19:00 69.9 % 27.225 -54.922 0.674 0 0
30-06-2020 18:50 69.4 % 27.075 -64.44 0.595 0 0
30-06-2020 18:40 67.8 % 27.223 -59.423 1.61 0 0
30-06-2020 18:30 66.6 % 27.756 -77.536 0.331 0 0
30-06-2020 18:20 65.9 % 27.663 -65.871 1.447 0 0

I dati sono presentati in modo automatico a scopo informativo. In seguito a verifica i dati possono subire modifiche o essere invalidati e non riportati negli archivi definitivi.